Time;durP1;ratioP1;P1;durP2;ratioP2;P2;SDS_P1;SDS_P2;PMS_P1;PMS_P2;Temp;Humidity;BMP_temperature;BMP_pressure;BME280_temperature;BME280_humidity;BME280_pressure;Samples;Min_cycle;Max_cycle;Signal;HPM_P1;HPM_P2
2024/01/26 00:01:55;;;;;;;82.90;12.80;;;13.20;99.90;;;;;;5071146;28;20037;-50
2024/01/26 00:04:21;;;;;;;74.80;11.73;;;13.20;99.90;;;;;;5071368;28;20113;-50
2024/01/26 00:06:47;;;;;;;78.28;12.10;;;13.30;99.90;;;;;;5071193;28;20483;-50
2024/01/26 00:09:13;;;;;;;94.45;13.25;;;13.20;99.90;;;;;;5070429;28;20052;-49
2024/01/26 00:11:41;;;;;;;75.55;12.80;;;13.20;99.90;;;;;;5089132;28;20029;-49
2024/01/26 00:14:10;;;;;;;69.55;12.07;;;13.20;99.90;;;;;;5071306;28;20024;-49
2024/01/26 00:16:36;;;;;;;71.28;12.00;;;13.20;99.90;;;;;;5053964;28;20499;-50
2024/01/26 00:19:01;;;;;;;60.17;11.25;;;13.20;99.90;;;;;;5070747;28;20029;-50
2024/01/26 00:21:29;;;;;;;80.65;12.50;;;13.20;99.90;;;;;;5071244;28;20032;-49
2024/01/26 00:23:54;;;;;;;66.68;10.45;;;13.20;99.90;;;;;;5088722;28;20032;-50
2024/01/26 00:26:20;;;;;;;75.50;11.00;;;13.20;99.90;;;;;;5070175;28;20024;-49
2024/01/26 00:28:45;;;;;;;74.78;12.48;;;13.10;99.90;;;;;;5070694;28;20095;-50
2024/01/26 00:31:16;;;;;;;58.47;10.82;;;13.10;99.90;;;;;;5070876;28;20028;-50
2024/01/26 00:33:42;;;;;;;53.35;10.02;;;13.10;99.90;;;;;;5070390;28;20036;-50
2024/01/26 00:36:08;;;;;;;72.55;10.55;;;13.10;99.90;;;;;;5069844;28;20033;-50
2024/01/26 00:38:33;;;;;;;53.88;11.00;;;13.10;99.90;;;;;;5070730;28;20033;-49
2024/01/26 00:40:59;;;;;;;61.03;10.82;;;13.10;99.90;;;;;;5070634;28;20059;-49
2024/01/26 00:43:24;;;;;;;51.53;9.68;;;13.10;99.90;;;;;;5070478;28;20024;-50
2024/01/26 00:45:50;;;;;;;71.90;11.45;;;13.10;99.90;;;;;;5086346;28;20052;-50
2024/01/26 00:48:15;;;;;;;54.70;10.00;;;13.10;99.90;;;;;;5088248;28;20035;-50
2024/01/26 00:50:41;;;;;;;52.25;9.43;;;13.10;99.90;;;;;;5070479;28;20059;-54
2024/01/26 00:53:07;;;;;;;60.22;9.60;;;13.00;99.90;;;;;;5086263;28;20052;-50
2024/01/26 00:55:32;;;;;;;64.25;11.20;;;13.00;99.90;;;;;;5086816;28;20037;-50
2024/01/26 00:57:59;;;;;;;56.47;10.52;;;13.00;99.90;;;;;;5053495;28;20051;-50
2024/01/26 01:00:24;;;;;;;51.50;8.57;;;13.00;99.90;;;;;;5070000;28;20060;-50
2024/01/26 01:02:51;;;;;;;50.95;9.02;;;13.00;99.90;;;;;;5087219;28;20031;-50
2024/01/26 01:05:17;;;;;;;46.80;9.05;;;13.00;99.90;;;;;;5070149;28;20460;-50
2024/01/26 01:07:42;;;;;;;51.35;8.45;;;12.90;99.90;;;;;;5086716;28;20112;-50
2024/01/26 01:10:09;;;;;;;47.97;8.60;;;13.00;99.90;;;;;;5069894;28;20074;-50
2024/01/26 01:12:38;;;;;;;47.38;9.63;;;13.00;99.90;;;;;;5085941;28;20047;-49
2024/01/26 01:15:03;;;;;;;60.35;8.77;;;12.90;99.90;;;;;;5053002;28;20021;-50
2024/01/26 01:17:29;;;;;;;45.38;8.77;;;12.90;99.90;;;;;;5086678;28;20054;-50
2024/01/26 01:19:55;;;;;;;42.10;8.75;;;12.90;99.90;;;;;;5087790;28;20033;-50
2024/01/26 01:22:21;;;;;;;51.85;8.13;;;12.90;99.90;;;;;;5067900;28;20029;-49
2024/01/26 01:24:46;;;;;;;41.85;8.43;;;12.90;99.90;;;;;;5049582;28;20025;-50
2024/01/26 01:27:12;;;;;;;34.08;6.82;;;12.80;99.90;;;;;;5049685;28;20052;-50
2024/01/26 01:29:38;;;;;;;29.90;5.93;;;12.80;99.90;;;;;;5072378;28;20097;-50
2024/01/26 01:32:04;;;;;;;40.08;7.60;;;12.80;99.90;;;;;;5086274;28;20033;-50
2024/01/26 01:34:29;;;;;;;33.88;6.78;;;12.80;99.90;;;;;;5069451;28;20035;-49
2024/01/26 01:36:55;;;;;;;41.42;7.10;;;12.80;99.90;;;;;;5069405;28;20036;-49
2024/01/26 01:39:21;;;;;;;34.25;6.95;;;12.80;99.90;;;;;;5086478;28;20078;-50
2024/01/26 01:41:47;;;;;;;31.13;6.50;;;12.80;99.90;;;;;;5087239;28;20078;-50
2024/01/26 01:44:13;;;;;;;36.00;7.00;;;12.70;99.90;;;;;;5088802;28;20025;-50
2024/01/26 01:46:38;;;;;;;24.38;5.57;;;12.70;99.90;;;;;;5068383;28;20031;-50
2024/01/26 01:49:04;;;;;;;31.88;6.40;;;12.70;99.90;;;;;;5071083;28;20096;-49
2024/01/26 01:51:31;;;;;;;35.33;6.15;;;12.70;99.90;;;;;;5067153;28;20385;-50
2024/01/26 01:53:56;;;;;;;24.83;6.30;;;12.70;99.90;;;;;;5049333;28;20025;-49
2024/01/26 01:56:23;;;;;;;34.45;7.10;;;12.70;99.90;;;;;;5049977;28;20074;-50
2024/01/26 01:58:48;;;;;;;32.65;5.95;;;12.70;99.90;;;;;;5085776;28;20035;-50
2024/01/26 02:01:14;;;;;;;29.77;5.32;;;12.70;99.90;;;;;;5069172;28;20438;-49
2024/01/26 02:03:40;;;;;;;32.33;6.45;;;12.60;99.90;;;;;;5086746;28;20055;-50
2024/01/26 02:06:05;;;;;;;34.90;5.90;;;12.60;99.90;;;;;;5067914;28;20021;-50
2024/01/26 02:08:31;;;;;;;25.02;5.70;;;12.60;99.90;;;;;;5068759;28;20017;-50
2024/01/26 02:10:56;;;;;;;34.83;5.93;;;12.60;99.90;;;;;;5068858;28;20025;-50
2024/01/26 02:13:22;;;;;;;28.17;5.72;;;12.60;99.90;;;;;;5068922;28;20031;-50
2024/01/26 02:15:47;;;;;;;37.17;7.00;;;12.60;99.90;;;;;;5084780;28;20377;-50
2024/01/26 02:18:13;;;;;;;28.67;5.80;;;12.60;99.90;;;;;;5068590;28;20028;-50
2024/01/26 02:20:39;;;;;;;30.80;5.38;;;12.50;99.90;;;;;;5086749;28;20024;-50
2024/01/26 02:23:04;;;;;;;27.55;5.93;;;12.50;99.90;;;;;;5086523;28;20040;-50
2024/01/26 02:25:30;;;;;;;22.77;5.80;;;12.50;99.90;;;;;;5084513;28;20048;-50
2024/01/26 02:27:55;;;;;;;30.80;5.40;;;12.50;99.90;;;;;;5068547;28;20078;-50
2024/01/26 02:30:21;;;;;;;22.55;4.72;;;12.50;99.90;;;;;;5086537;28;20064;-50
2024/01/26 02:32:46;;;;;;;24.83;5.57;;;12.50;99.90;;;;;;5066428;28;20464;-49
2024/01/26 02:35:12;;;;;;;17.52;5.60;;;12.50;99.90;;;;;;5066097;28;20029;-50
2024/01/26 02:37:38;;;;;;;28.27;4.78;;;12.50;99.90;;;;;;5048630;28;20079;-50
2024/01/26 02:40:04;;;;;;;24.27;4.82;;;12.40;99.90;;;;;;5065053;28;20036;-50
2024/01/26 02:42:29;;;;;;;21.17;4.65;;;12.40;99.90;;;;;;5072976;28;20039;-49
2024/01/26 02:44:55;;;;;;;27.20;5.00;;;12.40;99.90;;;;;;5086372;28;20020;-50
2024/01/26 02:47:20;;;;;;;19.90;4.78;;;12.40;99.90;;;;;;5068403;28;20027;-50
2024/01/26 02:49:46;;;;;;;17.90;5.03;;;12.40;99.90;;;;;;5086247;28;20021;-50
2024/01/26 02:52:12;;;;;;;29.23;5.50;;;12.40;99.90;;;;;;5085520;28;20472;-49
2024/01/26 02:54:37;;;;;;;21.27;4.30;;;12.40;99.90;;;;;;5085176;28;20028;-49
2024/01/26 02:57:03;;;;;;;22.17;4.43;;;12.40;99.90;;;;;;5085834;28;20358;-49
2024/01/26 02:59:29;;;;;;;23.30;4.32;;;12.40;99.90;;;;;;5068195;28;20028;-50
2024/01/26 03:01:54;;;;;;;21.50;5.50;;;12.40;99.90;;;;;;5067336;28;20492;-50
2024/01/26 03:04:20;;;;;;;23.02;5.60;;;12.40;99.90;;;;;;5085367;28;20025;-50
2024/01/26 03:06:46;;;;;;;21.05;4.70;;;12.30;99.90;;;;;;5068183;28;20029;-49
2024/01/26 03:09:12;;;;;;;27.63;5.25;;;12.30;99.90;;;;;;5084048;28;20474;-50
2024/01/26 03:11:38;;;;;;;14.88;3.95;;;12.30;99.90;;;;;;5086254;28;20029;-49
2024/01/26 03:14:05;;;;;;;16.27;4.63;;;12.30;99.90;;;;;;5084743;28;20044;-50
2024/01/26 03:16:32;;;;;;;20.65;4.28;;;12.30;99.90;;;;;;5068089;28;20496;-50
2024/01/26 03:18:57;;;;;;;18.63;3.67;;;12.30;99.90;;;;;;5067083;28;20435;-49
2024/01/26 03:21:23;;;;;;;19.88;3.97;;;12.30;99.90;;;;;;5067833;28;20025;-50
2024/01/26 03:23:49;;;;;;;15.60;3.35;;;12.30;99.90;;;;;;5084849;28;20500;-50
2024/01/26 03:26:14;;;;;;;20.02;4.00;;;12.20;99.90;;;;;;5067926;28;20031;-50
2024/01/26 03:28:40;;;;;;;17.05;4.53;;;12.30;99.90;;;;;;5085197;28;20029;-50
2024/01/26 03:31:05;;;;;;;17.40;4.20;;;12.20;99.90;;;;;;5085864;28;20028;-50
2024/01/26 03:33:31;;;;;;;16.17;3.72;;;12.20;99.90;;;;;;5086007;28;20029;-50
2024/01/26 03:35:56;;;;;;;15.00;4.15;;;12.20;99.90;;;;;;5084430;28;20086;-50
2024/01/26 03:38:22;;;;;;;14.88;3.85;;;12.20;99.90;;;;;;5083866;28;20033;-50
2024/01/26 03:40:48;;;;;;;18.10;4.03;;;12.20;99.90;;;;;;5051133;28;20089;-50
2024/01/26 03:43:13;;;;;;;19.77;4.20;;;12.20;99.90;;;;;;5067696;28;20024;-50
2024/01/26 03:45:39;;;;;;;14.52;3.45;;;12.20;99.90;;;;;;5085123;28;20024;-50
2024/01/26 03:48:04;;;;;;;17.02;3.67;;;12.20;99.90;;;;;;5085706;28;20056;-50
2024/01/26 03:50:30;;;;;;;11.65;3.17;;;12.20;99.90;;;;;;5067451;28;20025;-50
2024/01/26 03:52:56;;;;;;;17.88;3.97;;;12.10;99.90;;;;;;5084616;28;20035;-50
2024/01/26 03:55:21;;;;;;;10.68;3.83;;;12.20;99.90;;;;;;5066862;28;20542;-50
2024/01/26 03:57:47;;;;;;;14.15;3.38;;;12.10;99.90;;;;;;5084637;28;20028;-50
2024/01/26 04:00:13;;;;;;;12.88;3.15;;;12.10;99.90;;;;;;5085555;28;20487;-50
2024/01/26 04:02:38;;;;;;;16.17;3.80;;;12.10;99.90;;;;;;5067414;28;20037;-50
2024/01/26 04:05:04;;;;;;;16.38;3.33;;;12.10;99.90;;;;;;5084424;28;20020;-50
2024/01/26 04:07:30;;;;;;;17.33;3.38;;;12.10;99.90;;;;;;5083786;28;20027;-50
2024/01/26 04:09:55;;;;;;;16.17;3.05;;;12.10;99.90;;;;;;5087120;28;20430;-50
2024/01/26 04:12:21;;;;;;;13.68;3.53;;;12.10;99.90;;;;;;5086609;28;20055;-50
2024/01/26 04:14:46;;;;;;;17.15;3.85;;;12.10;99.90;;;;;;5087702;28;20029;-50
2024/01/26 04:17:12;;;;;;;18.92;3.28;;;12.10;99.90;;;;;;5088020;28;20032;-50
2024/01/26 04:19:38;;;;;;;14.88;3.05;;;12.10;99.90;;;;;;5071116;28;20078;-50
2024/01/26 04:22:04;;;;;;;10.05;2.80;;;12.10;99.90;;;;;;5087753;28;20027;-50
2024/01/26 04:24:30;;;;;;;11.85;3.60;;;12.10;99.90;;;;;;5088800;28;20077;-50
2024/01/26 04:26:55;;;;;;;17.48;3.35;;;12.10;99.90;;;;;;5090119;28;20024;-49
2024/01/26 04:29:21;;;;;;;11.63;3.30;;;12.10;99.90;;;;;;5088854;28;20028;-50
2024/01/26 04:31:46;;;;;;;14.07;3.30;;;12.00;99.90;;;;;;5090465;28;20058;-49
2024/01/26 04:34:12;;;;;;;11.02;3.17;;;12.00;99.90;;;;;;5108485;28;20041;-50
2024/01/26 04:36:38;;;;;;;12.63;3.63;;;12.00;99.90;;;;;;5089138;28;20061;-50
2024/01/26 04:39:03;;;;;;;13.00;3.30;;;12.00;99.90;;;;;;5109048;28;20032;-50
2024/01/26 04:41:29;;;;;;;9.45;2.72;;;12.00;99.90;;;;;;5090787;28;20039;-50
2024/01/26 04:43:55;;;;;;;14.02;3.53;;;12.00;99.90;;;;;;5090862;28;20036;-49
2024/01/26 04:46:21;;;;;;;11.07;3.22;;;12.00;99.90;;;;;;5108849;28;20032;-50
2024/01/26 04:48:46;;;;;;;17.00;3.67;;;12.00;99.90;;;;;;5073928;28;20032;-50
2024/01/26 04:51:12;;;;;;;11.32;3.05;;;12.00;99.90;;;;;;5090994;28;20039;-50
2024/01/26 04:53:37;;;;;;;9.32;2.92;;;12.00;99.90;;;;;;5109659;28;20032;-50
2024/01/26 04:56:03;;;;;;;11.07;2.85;;;12.00;99.90;;;;;;5090507;28;20028;-50
2024/01/26 04:58:29;;;;;;;14.07;2.75;;;12.00;99.90;;;;;;5090521;28;20403;-49
2024/01/26 05:00:54;;;;;;;13.57;3.63;;;12.00;99.90;;;;;;5108573;28;20032;-50
2024/01/26 05:03:20;;;;;;;9.10;3.08;;;11.90;99.90;;;;;;5107190;28;20074;-50
2024/01/26 05:05:45;;;;;;;11.85;3.28;;;12.00;99.90;;;;;;5090318;28;20091;-50
2024/01/26 05:08:11;;;;;;;12.45;3.53;;;11.90;99.90;;;;;;5073399;28;20054;-50
2024/01/26 05:10:36;;;;;;;10.38;2.88;;;11.90;99.90;;;;;;5108089;28;20059;-50
2024/01/26 05:13:02;;;;;;;15.20;2.95;;;11.90;99.90;;;;;;5108017;28;20029;-50
2024/01/26 05:15:28;;;;;;;9.45;2.33;;;11.90;99.90;;;;;;5089927;28;20028;-50
2024/01/26 05:17:53;;;;;;;12.43;3.13;;;11.90;99.90;;;;;;5089974;28;20036;-50
2024/01/26 05:20:19;;;;;;;14.98;3.35;;;11.90;99.90;;;;;;5107796;28;20024;-50
2024/01/26 05:22:45;;;;;;;10.10;2.60;;;11.90;99.90;;;;;;5107966;28;20125;-50
2024/01/26 05:25:10;;;;;;;11.07;3.10;;;11.90;99.90;;;;;;5107946;28;20020;-50
2024/01/26 05:27:36;;;;;;;8.85;2.47;;;11.90;99.90;;;;;;5107889;28;20093;-50
2024/01/26 05:30:02;;;;;;;9.32;2.47;;;11.90;99.90;;;;;;5072683;28;20012;-50
2024/01/26 05:32:28;;;;;;;12.98;2.42;;;11.90;99.90;;;;;;5071555;28;20033;-50
2024/01/26 05:34:53;;;;;;;15.43;3.05;;;11.90;99.90;;;;;;5087378;28;20050;-50
2024/01/26 05:37:19;;;;;;;10.25;2.53;;;11.90;99.90;;;;;;5087186;28;20040;-50
2024/01/26 05:39:45;;;;;;;11.15;2.92;;;11.90;99.90;;;;;;5069605;28;20032;-50
2024/01/26 05:42:10;;;;;;;9.43;3.13;;;11.90;99.90;;;;;;5069247;28;20086;-50
2024/01/26 05:44:36;;;;;;;11.80;2.80;;;11.90;99.90;;;;;;5069424;28;20035;-50
2024/01/26 05:47:01;;;;;;;13.20;3.78;;;11.90;99.90;;;;;;5069195;28;20059;-50
2024/01/26 05:49:27;;;;;;;15.88;3.45;;;11.90;99.90;;;;;;5069311;28;20074;-50
2024/01/26 05:51:52;;;;;;;15.95;3.72;;;11.80;99.90;;;;;;5052521;28;20096;-50
2024/01/26 05:54:18;;;;;;;19.70;3.78;;;11.90;99.90;;;;;;5087224;28;20040;-50
2024/01/26 05:56:44;;;;;;;13.75;4.75;;;11.90;99.90;;;;;;5069438;28;20028;-50
2024/01/26 05:59:09;;;;;;;22.30;4.57;;;11.90;99.90;;;;;;5087011;28;20058;-50
2024/01/26 06:01:35;;;;;;;33.25;4.75;;;11.90;99.90;;;;;;5048945;28;20040;-49
2024/01/26 06:04:01;;;;;;;34.53;5.20;;;11.90;99.90;;;;;;5065711;28;20021;-50
2024/01/26 06:06:27;;;;;;;27.25;5.50;;;11.90;99.90;;;;;;5048671;28;20025;-50
2024/01/26 06:08:52;;;;;;;27.00;4.78;;;11.90;99.90;;;;;;5065577;28;20048;-50
2024/01/26 06:11:18;;;;;;;29.98;4.80;;;11.80;99.90;;;;;;5065696;28;20025;-50
2024/01/26 06:13:44;;;;;;;25.42;5.03;;;11.80;99.90;;;;;;5066972;28;20036;-50
2024/01/26 06:16:13;;;;;;;29.10;6.32;;;11.80;99.90;;;;;;5066713;28;20056;-50
2024/01/26 06:18:39;;;;;;;34.42;5.65;;;11.80;99.90;;;;;;5065543;28;20028;-50
2024/01/26 06:21:05;;;;;;;30.35;6.40;;;11.80;99.90;;;;;;5065260;28;20036;-49
2024/01/26 06:23:30;;;;;;;30.25;6.10;;;11.80;99.90;;;;;;5065321;28;20025;-50
2024/01/26 06:25:56;;;;;;;23.65;6.15;;;11.80;99.90;;;;;;5066452;28;20029;-50
2024/01/26 06:28:22;;;;;;;26.77;5.85;;;11.80;99.90;;;;;;5065135;28;20037;-50
2024/01/26 06:30:47;;;;;;;43.72;7.97;;;11.80;99.90;;;;;;5064754;28;20033;-50
2024/01/26 06:33:13;;;;;;;38.33;7.60;;;11.80;99.90;;;;;;5064746;28;20155;-49
2024/01/26 06:35:38;;;;;;;26.88;6.07;;;11.80;99.90;;;;;;5066002;28;20524;-50
2024/01/26 06:38:04;;;;;;;31.98;6.85;;;11.80;99.90;;;;;;5065240;28;20079;-50
2024/01/26 06:40:30;;;;;;;40.22;6.97;;;11.80;99.90;;;;;;5066189;28;20381;-50
2024/01/26 06:42:55;;;;;;;57.85;8.80;;;11.80;99.90;;;;;;5065142;28;20053;-50
2024/01/26 06:45:21;;;;;;;54.17;8.40;;;11.80;99.90;;;;;;5065025;28;20461;-50
2024/01/26 06:47:47;;;;;;;51.20;7.85;;;11.80;99.90;;;;;;5065000;28;20029;-50
2024/01/26 06:50:12;;;;;;;40.28;7.65;;;11.80;99.90;;;;;;5064833;28;20029;-50
2024/01/26 06:52:38;;;;;;;38.72;8.23;;;11.80;99.90;;;;;;5064938;28;20102;-50
2024/01/26 06:55:04;;;;;;;47.13;9.15;;;11.80;99.90;;;;;;5064436;28;20084;-50
2024/01/26 06:57:29;;;;;;;55.92;10.07;;;11.80;99.90;;;;;;5066199;28;20025;-50
2024/01/26 06:59:55;;;;;;;61.20;9.98;;;11.80;99.90;;;;;;5064935;28;20028;-50
2024/01/26 07:02:20;;;;;;;57.63;10.57;;;11.80;99.90;;;;;;5064776;28;20453;-50
2024/01/26 07:04:46;;;;;;;52.92;9.95;;;11.80;99.90;;;;;;5065546;28;20088;-49
2024/01/26 07:07:12;;;;;;;54.08;10.13;;;11.80;99.90;;;;;;5080907;28;20028;-50
2024/01/26 07:09:38;;;;;;;46.15;9.32;;;11.80;99.90;;;;;;5067445;28;20020;-50
2024/01/26 07:12:04;;;;;;;50.30;8.73;;;11.80;99.90;;;;;;5083265;28;20036;-50
2024/01/26 07:14:29;;;;;;;30.15;7.85;;;11.80;99.90;;;;;;5063169;28;20029;-50
2024/01/26 07:16:55;;;;;;;61.33;9.48;;;11.80;99.90;;;;;;5080462;28;20055;-50
2024/01/26 07:19:21;;;;;;;37.85;8.70;;;11.80;99.90;;;;;;5062768;28;20037;-50
2024/01/26 07:21:46;;;;;;;32.58;7.57;;;11.80;99.90;;;;;;5060011;28;20046;-50
2024/01/26 07:24:12;;;;;;;40.67;9.38;;;11.70;99.90;;;;;;5086561;28;20028;-49
2024/01/26 07:26:37;;;;;;;46.92;10.68;;;11.70;99.90;;;;;;5062670;28;20044;-50
2024/01/26 07:29:03;;;;;;;41.00;9.85;;;11.70;99.90;;;;;;5070361;28;20068;-50
2024/01/26 07:31:29;;;;;;;60.83;11.30;;;11.70;99.90;;;;;;5070719;28;20054;-49
2024/01/26 07:33:55;;;;;;;48.03;9.35;;;11.70;99.90;;;;;;5068742;28;20059;-50
2024/01/26 07:36:20;;;;;;;49.80;11.10;;;11.70;99.90;;;;;;5068881;28;20020;-50
2024/01/26 07:38:46;;;;;;;48.72;9.65;;;11.70;99.90;;;;;;5069704;28;20117;-50
2024/01/26 07:41:11;;;;;;;44.70;10.63;;;11.70;99.90;;;;;;5067330;28;20020;-50
2024/01/26 07:43:37;;;;;;;59.25;10.00;;;11.70;99.90;;;;;;5057521;28;20028;-50
2024/01/26 07:46:03;;;;;;;99.75;14.75;;;11.70;99.90;;;;;;5078446;28;20024;-50
2024/01/26 07:48:28;;;;;;;69.78;10.73;;;11.70;99.90;;;;;;5073944;28;20028;-50
2024/01/26 07:50:54;;;;;;;70.07;10.63;;;11.70;99.90;;;;;;5088474;28;20066;-50
2024/01/26 07:53:19;;;;;;;64.25;10.45;;;11.70;99.90;;;;;;5076599;28;20353;-49
2024/01/26 07:55:45;;;;;;;62.22;9.65;;;11.70;99.90;;;;;;5081373;28;20094;-49
2024/01/26 07:58:10;;;;;;;56.30;10.52;;;11.70;99.90;;;;;;5083293;28;20035;-50
2024/01/26 08:00:36;;;;;;;63.15;10.82;;;11.70;99.90;;;;;;5054028;28;20047;-50
2024/01/26 08:03:02;;;;;;;49.78;9.27;;;11.80;99.90;;;;;;5093338;28;20060;-50
2024/01/26 08:05:28;;;;;;;91.30;13.68;;;11.70;99.90;;;;;;5087333;28;20052;-50
2024/01/26 08:07:54;;;;;;;71.65;12.40;;;11.80;99.90;;;;;;5089321;28;20036;-49
2024/01/26 08:10:19;;;;;;;87.20;12.38;;;11.80;99.90;;;;;;5089495;28;20027;-50
2024/01/26 08:12:45;;;;;;;73.97;12.38;;;11.80;99.90;;;;;;5089495;28;20029;-51
2024/01/26 08:15:11;;;;;;;76.03;13.02;;;11.80;99.90;;;;;;5088739;28;20039;-49
2024/01/26 08:17:37;;;;;;;74.03;12.35;;;11.80;99.90;;;;;;5085305;28;20032;-50
2024/01/26 08:20:03;;;;;;;98.13;14.35;;;11.80;99.90;;;;;;5070244;28;20047;-49
2024/01/26 08:22:31;;;;;;;94.63;12.77;;;11.80;99.90;;;;;;5053840;28;20041;-50
2024/01/26 08:25:00;;;;;;;104.32;14.18;;;11.80;99.90;;;;;;5088752;28;20027;-49
2024/01/26 08:27:26;;;;;;;89.45;15.30;;;11.80;99.90;;;;;;5090503;28;20024;-50
2024/01/26 08:29:52;;;;;;;103.03;14.93;;;11.90;99.90;;;;;;5055423;28;20046;-50
2024/01/26 08:32:17;;;;;;;91.75;13.35;;;11.90;99.90;;;;;;5069746;28;20543;-50
2024/01/26 08:34:43;;;;;;;114.75;15.73;;;12.00;99.90;;;;;;5096841;28;20377;-50
2024/01/26 08:37:09;;;;;;;121.68;14.60;;;11.90;99.90;;;;;;5085230;28;20027;-50
2024/01/26 08:39:34;;;;;;;121.72;15.57;;;11.90;99.90;;;;;;5085380;28;20036;-50
2024/01/26 08:42:00;;;;;;;116.80;16.58;;;11.90;99.90;;;;;;5067996;28;20426;-50
2024/01/26 08:44:25;;;;;;;147.20;18.25;;;12.00;99.90;;;;;;5068228;28;20040;-50
2024/01/26 08:46:51;;;;;;;149.20;15.63;;;12.00;99.90;;;;;;5087749;28;20029;-49
2024/01/26 08:49:17;;;;;;;142.15;17.33;;;12.00;99.90;;;;;;5068039;28;20035;-50
2024/01/26 08:51:42;;;;;;;134.95;17.27;;;12.00;99.90;;;;;;5086579;28;20016;-48
2024/01/26 08:54:08;;;;;;;126.30;16.67;;;12.00;99.90;;;;;;5064601;28;20108;-50
2024/01/26 08:56:39;;;;;;;129.55;16.40;;;12.10;99.90;;;;;;5089322;28;20017;-49
2024/01/26 08:59:06;;;;;;;142.63;17.88;;;12.10;99.90;;;;;;5078810;28;20028;-50
2024/01/26 09:01:34;;;;;;;139.48;16.83;;;12.10;99.90;;;;;;5075362;28;20540;-50
2024/01/26 09:04:00;;;;;;;126.10;19.05;;;12.10;99.90;;;;;;5094148;28;20029;-50
2024/01/26 09:06:25;;;;;;;123.05;16.75;;;12.10;99.90;;;;;;5079112;28;20048;-50
2024/01/26 09:08:51;;;;;;;181.48;19.55;;;12.20;99.90;;;;;;5072324;28;20028;-50
2024/01/26 09:11:17;;;;;;;166.70;19.48;;;12.20;99.90;;;;;;5086556;28;20035;-50
2024/01/26 09:13:42;;;;;;;204.55;21.75;;;12.20;99.90;;;;;;5094822;28;20071;-50
2024/01/26 09:16:11;;;;;;;151.90;19.48;;;12.20;99.90;;;;;;5046322;28;20029;-50
2024/01/26 09:18:38;;;;;;;190.15;22.58;;;12.20;99.90;;;;;;5058582;28;20033;-50
2024/01/26 09:21:05;;;;;;;317.77;30.88;;;12.20;99.90;;;;;;5052455;28;20086;-50
2024/01/26 09:23:30;;;;;;;270.58;29.20;;;12.30;99.90;;;;;;5068488;28;20111;-50
2024/01/26 09:25:56;;;;;;;200.25;23.55;;;12.30;99.90;;;;;;5081366;28;20024;-50
2024/01/26 09:28:21;;;;;;;184.57;23.67;;;12.30;99.90;;;;;;5077168;28;20386;-50
2024/01/26 09:30:47;;;;;;;219.07;29.15;;;12.30;99.90;;;;;;5085414;28;20468;-50
2024/01/26 09:33:13;;;;;;;206.57;22.52;;;12.30;99.90;;;;;;5069172;28;20092;-50
2024/01/26 09:35:38;;;;;;;162.30;21.17;;;12.30;99.90;;;;;;5057641;28;20077;-50
2024/01/26 09:38:04;;;;;;;195.15;22.45;;;12.30;99.90;;;;;;5078800;28;20027;-50
2024/01/26 09:40:30;;;;;;;197.38;22.20;;;12.40;99.90;;;;;;5058068;28;20043;-50
2024/01/26 09:42:58;;;;;;;198.60;23.90;;;12.40;99.90;;;;;;5063399;28;20775;-50
2024/01/26 09:45:24;;;;;;;174.40;23.38;;;12.40;99.90;;;;;;5051050;28;20114;-50
2024/01/26 09:47:53;;;;;;;149.85;20.17;;;12.40;99.90;;;;;;5049534;28;20088;-50
2024/01/26 09:50:19;;;;;;;158.80;18.73;;;12.40;99.90;;;;;;5079745;28;20082;-50
2024/01/26 09:52:45;;;;;;;199.93;22.00;;;12.40;99.90;;;;;;5082733;28;20040;-50
2024/01/26 09:55:11;;;;;;;190.73;23.30;;;12.50;99.90;;;;;;5084392;28;20036;-50
2024/01/26 09:57:36;;;;;;;200.45;23.42;;;12.50;99.90;;;;;;5046900;28;20028;-50
2024/01/26 10:00:04;;;;;;;199.00;22.90;;;12.50;99.90;;;;;;5037749;28;20025;-50
2024/01/26 10:02:30;;;;;;;193.10;21.75;;;12.60;99.90;;;;;;5066451;28;20032;-49
2024/01/26 10:04:56;;;;;;;230.40;26.40;;;12.60;99.90;;;;;;5062202;28;20028;-50
2024/01/26 10:07:21;;;;;;;180.35;22.13;;;12.60;99.90;;;;;;5063357;28;20033;-50
2024/01/26 10:09:47;;;;;;;218.57;24.92;;;12.60;99.90;;;;;;5082385;28;20116;-50
2024/01/26 10:12:16;;;;;;;195.07;24.08;;;12.60;99.90;;;;;;5083281;28;20039;-50
2024/01/26 10:14:41;;;;;;;161.57;21.00;;;12.70;99.90;;;;;;5062415;28;20088;-50
2024/01/26 10:17:07;;;;;;;187.52;23.35;;;12.70;99.90;;;;;;5083798;28;20058;-50
2024/01/26 10:19:34;;;;;;;179.70;21.65;;;12.70;99.90;;;;;;5083177;28;20454;-50
2024/01/26 10:22:00;;;;;;;200.32;23.42;;;12.70;99.90;;;;;;5082601;28;20077;-50
2024/01/26 10:24:26;;;;;;;194.50;22.40;;;12.70;99.90;;;;;;5066663;28;20029;-50
2024/01/26 10:26:54;;;;;;;182.30;20.63;;;12.70;99.90;;;;;;5065368;28;20016;-50
2024/01/26 10:29:20;;;;;;;217.68;24.33;;;12.70;99.90;;;;;;5048461;28;20028;-50
2024/01/26 10:31:47;;;;;;;204.38;22.27;;;12.80;99.90;;;;;;5061514;28;20400;-50
2024/01/26 10:34:14;;;;;;;195.75;22.25;;;12.80;99.90;;;;;;5064833;28;20041;-50
2024/01/26 10:36:43;;;;;;;307.98;29.35;;;12.80;99.90;;;;;;5064162;28;20056;-50
2024/01/26 10:39:14;;;;;;;274.50;27.58;;;12.80;99.90;;;;;;5064447;28;20135;-50
2024/01/26 10:41:40;;;;;;;186.68;21.88;;;12.90;99.90;;;;;;5065361;28;20067;-50
2024/01/26 10:44:09;;;;;;;185.13;20.85;;;12.90;99.90;;;;;;5065315;28;20033;-50
2024/01/26 10:46:37;;;;;;;253.43;25.92;;;12.90;99.90;;;;;;5048869;28;20029;-50
2024/01/26 10:49:02;;;;;;;241.18;25.52;;;12.90;99.90;;;;;;5064748;28;20103;-50
2024/01/26 10:51:29;;;;;;;271.35;29.40;;;13.00;99.90;;;;;;5063629;28;20125;-50
2024/01/26 10:53:54;;;;;;;210.02;24.05;;;13.00;99.90;;;;;;5064594;28;20673;-50
2024/01/26 10:56:20;;;;;;;246.25;24.50;;;13.00;99.90;;;;;;5062155;28;20050;-49
2024/01/26 10:58:46;;;;;;;253.02;27.45;;;13.00;99.90;;;;;;5081475;28;20158;-50
2024/01/26 11:01:11;;;;;;;241.43;23.63;;;13.10;99.90;;;;;;5063965;28;20032;-50
2024/01/26 11:03:37;;;;;;;204.20;23.02;;;13.10;99.90;;;;;;5063451;28;20119;-50
2024/01/26 11:06:03;;;;;;;125.05;13.93;;;13.10;99.90;;;;;;5064767;28;20036;-50
2024/01/26 11:08:29;;;;;;;119.80;13.77;;;13.00;99.90;;;;;;5048451;28;20045;-50
2024/01/26 11:10:54;;;;;;;192.55;19.92;;;13.10;99.90;;;;;;5063099;28;20044;-50
2024/01/26 11:13:21;;;;;;;175.75;18.80;;;13.10;99.90;;;;;;5061463;28;20085;-50
2024/01/26 11:15:47;;;;;;;171.13;19.85;;;13.10;99.90;;;;;;5067667;28;20100;-50
2024/01/26 11:18:26;;;;;;;166.35;17.13;;;13.10;99.90;;;;;;5072246;28;20059;-50
2024/01/26 11:20:52;;;;;;;169.65;17.80;;;13.10;99.90;;;;;;5051601;28;20021;-50
2024/01/26 11:23:17;;;;;;;216.73;25.17;;;13.10;99.90;;;;;;5078303;28;20040;-50
2024/01/26 11:25:44;;;;;;;135.48;15.68;;;13.10;99.90;;;;;;5075647;28;20384;-50
2024/01/26 11:28:10;;;;;;;114.50;15.15;;;13.10;99.90;;;;;;5078875;28;20029;-51
2024/01/26 11:30:37;;;;;;;110.55;13.90;;;13.10;99.90;;;;;;5068175;28;20112;-50
2024/01/26 11:33:03;;;;;;;142.82;15.30;;;13.10;99.90;;;;;;5094091;28;20058;-50
2024/01/26 11:35:28;;;;;;;121.97;15.73;;;13.20;99.90;;;;;;5084687;28;20038;-50
2024/01/26 11:37:55;;;;;;;136.93;15.88;;;13.20;99.90;;;;;;5052967;28;20032;-50
2024/01/26 11:40:23;;;;;;;170.05;18.58;;;13.20;99.90;;;;;;5071629;28;20040;-49
2024/01/26 11:42:49;;;;;;;125.22;14.05;;;13.20;99.90;;;;;;5080283;28;20050;-50
2024/01/26 11:45:44;;;;;;;138.00;15.07;;;13.20;99.90;;;;;;5070046;28;20536;-50
2024/01/26 11:48:10;;;;;;;134.57;14.55;;;13.20;99.90;;;;;;5086157;28;20063;-49
2024/01/26 11:50:37;;;;;;;140.88;13.68;;;13.20;99.90;;;;;;5084721;28;20059;-50
2024/01/26 11:53:04;;;;;;;135.45;14.77;;;13.20;99.90;;;;;;5068211;28;20032;-50
2024/01/26 11:55:30;;;;;;;113.30;13.80;;;13.20;99.90;;;;;;5071150;28;20025;-50
2024/01/26 11:57:56;;;;;;;126.25;13.38;;;13.30;99.90;;;;;;5066744;28;20170;-50
2024/01/26 12:00:22;;;;;;;107.35;13.02;;;13.30;99.90;;;;;;5067716;28;20033;-50
2024/01/26 12:02:48;;;;;;;120.78;12.73;;;13.30;99.90;;;;;;5070591;28;20038;-50
2024/01/26 12:05:16;;;;;;;136.63;14.55;;;13.30;99.90;;;;;;5076200;28;20539;-50
2024/01/26 12:07:41;;;;;;;70.38;8.82;;;13.30;99.90;;;;;;5073950;28;20029;-50
2024/01/26 12:10:08;;;;;;;115.93;9.77;;;13.30;99.90;;;;;;5080165;28;20044;-50
2024/01/26 12:12:34;;;;;;;126.03;12.10;;;13.30;99.90;;;;;;5074543;28;20036;-50
2024/01/26 12:15:01;;;;;;;105.57;11.15;;;13.30;99.90;;;;;;5062777;28;20041;-50
2024/01/26 12:17:27;;;;;;;110.80;12.07;;;13.20;99.90;;;;;;5065242;28;20109;-50
2024/01/26 12:19:53;;;;;;;98.47;12.35;;;13.30;99.90;;;;;;5090740;28;20028;-50
2024/01/26 12:22:18;;;;;;;108.32;13.40;;;13.20;99.90;;;;;;5074632;28;20028;-50
2024/01/26 12:24:44;;;;;;;108.75;11.35;;;13.30;99.90;;;;;;5073543;28;20541;-50